SAAJ/JNI METAR and TAF weather

Enter ICAO airport designator
Station Type Date Time Source
SAAJ METAR 2020/03/14 19:35 UTC NOAA

SAAJ 141935Z 23008G18KT 9999 TS BKN012 FEW045CB 19/16 Q1014


Station Type Date Time Source
SAAJ Decoded METAR 2020/03/14 19:35 UTC NOAA

Junin Aerodrome, Argentina (SAAJ) 34-33S 060-55W 81M
Mar 14, 2020 - 03:35 PM EDT / 2020.03.14 1935 UTC
Wind: from the SW (230 degrees) at 9 MPH (8 KT) gusting to 21 MPH (18 KT):0
Visibility: greater than 7 mile(s):0
Sky conditions: mostly cloudy
Weather: thunder; Cumulonimbus clouds observed
Temperature: 66 F (19 C)
Dew Point: 60 F (16 C)
Relative Humidity: 82%
Pressure (altimeter): 29.94 in. Hg (1014 hPa)
ob: SAAJ 141935Z 23008G18KT 9999 TS BKN012 FEW045CB 19/16 Q1014
cycle: 19

Station Type Date Time Source
SAAJ TAF UTC NOAA

Error!

Example: see airport list